createdAt,value
2023-05-08T00:01:53.003Z,8.54
2023-05-08T00:04:20.548Z,8.61
2023-05-08T00:06:47.187Z,8.60
2023-05-08T00:09:13.596Z,8.59
2023-05-08T00:11:39.885Z,8.62
2023-05-08T00:14:06.192Z,8.60
2023-05-08T00:16:32.700Z,8.57
2023-05-08T00:18:59.745Z,8.52
2023-05-08T00:21:26.382Z,8.51
2023-05-08T00:23:52.879Z,8.47
2023-05-08T00:26:19.228Z,8.45
2023-05-08T00:28:45.519Z,8.34
2023-05-08T00:31:11.906Z,8.30
2023-05-08T00:33:38.203Z,8.32
2023-05-08T00:36:04.903Z,8.24
2023-05-08T00:38:32.093Z,8.14
2023-05-08T00:40:58.665Z,8.15
2023-05-08T00:43:27.997Z,8.08
2023-05-08T00:45:54.915Z,7.90
2023-05-08T00:48:22.025Z,7.82
2023-05-08T00:50:48.504Z,7.75
2023-05-08T00:53:15.221Z,7.66
2023-05-08T00:55:41.630Z,7.59
2023-05-08T00:58:08.220Z,7.63
2023-05-08T01:00:34.641Z,7.60
2023-05-08T01:03:01.736Z,7.55
2023-05-08T01:05:28.392Z,7.54
2023-05-08T01:07:54.723Z,7.53
2023-05-08T01:10:21.080Z,7.56
2023-05-08T01:13:04.114Z,7.58
2023-05-08T01:15:36.159Z,7.60
2023-05-08T01:18:07.641Z,7.65
2023-05-08T01:20:37.054Z,7.66
2023-05-08T01:23:12.494Z,7.67
2023-05-08T01:28:14.363Z,7.65
2023-05-08T01:30:49.939Z,7.70
2023-05-08T01:33:16.370Z,7.78
2023-05-08T01:35:49.193Z,7.82
2023-05-08T01:38:31.839Z,7.86
2023-05-08T01:41:07.415Z,7.91
2023-05-08T01:43:53.004Z,7.94
2023-05-08T01:46:26.948Z,7.96
2023-05-08T01:48:59.273Z,7.97
2023-05-08T01:51:27.842Z,8.06
2023-05-08T01:54:00.773Z,8.05
2023-05-08T01:56:28.940Z,8.03
2023-05-08T01:58:56.785Z,8.01
2023-05-08T02:01:24.368Z,7.97
2023-05-08T02:03:51.789Z,7.96
2023-05-08T02:06:22.578Z,7.96
2023-05-08T02:08:49.491Z,7.93
2023-05-08T02:11:17.275Z,7.93
2023-05-08T02:13:47.108Z,7.93
2023-05-08T02:16:14.355Z,7.84
2023-05-08T02:18:43.479Z,7.81
2023-05-08T02:21:12.513Z,7.79
2023-05-08T02:23:38.836Z,7.74
2023-05-08T02:26:05.802Z,7.61
2023-05-08T02:28:32.908Z,7.69
2023-05-08T02:31:00.329Z,7.61
2023-05-08T02:33:27.660Z,7.54
2023-05-08T02:35:55.378Z,7.51
2023-05-08T02:38:23.655Z,7.51
2023-05-08T02:40:52.430Z,7.43
2023-05-08T02:43:19.016Z,7.43
2023-05-08T02:46:09.170Z,7.39
2023-05-08T02:48:41.859Z,7.43
2023-05-08T02:51:28.415Z,7.43
2023-05-08T02:53:57.915Z,7.39
2023-05-08T02:56:30.101Z,7.33
2023-05-08T02:59:22.658Z,7.30
2023-05-08T03:01:54.206Z,7.32
2023-05-08T03:04:26.743Z,7.26
2023-05-08T03:06:53.860Z,7.26
2023-05-08T03:09:21.469Z,7.22
2023-05-08T03:11:49.963Z,7.21
2023-05-08T03:14:19.623Z,7.15
2023-05-08T03:16:46.945Z,7.16
2023-05-08T03:19:23.286Z,7.17
2023-05-08T03:21:51.392Z,7.08
2023-05-08T03:24:19.022Z,7.03
2023-05-08T03:26:45.958Z,6.98
2023-05-08T03:29:13.839Z,6.96
2023-05-08T03:31:41.227Z,6.94
2023-05-08T03:34:08.409Z,6.86
2023-05-08T03:36:35.317Z,6.87
2023-05-08T03:39:02.160Z,6.81
2023-05-08T03:41:29.233Z,6.80
2023-05-08T03:43:56.078Z,6.75
2023-05-08T03:46:23.156Z,6.82
2023-05-08T03:48:50.498Z,6.75
2023-05-08T03:51:17.302Z,6.70
2023-05-08T03:53:43.637Z,6.66
2023-05-08T03:56:10.015Z,6.64
2023-05-08T03:58:54.475Z,6.71
2023-05-08T04:01:24.514Z,6.73
2023-05-08T04:03:55.954Z,6.77
2023-05-08T04:06:35.639Z,6.75
2023-05-08T04:09:27.947Z,6.76
2023-05-08T04:11:57.983Z,6.82
2023-05-08T04:14:26.017Z,6.78
2023-05-08T04:16:53.956Z,6.84
2023-05-08T04:19:27.348Z,6.86
2023-05-08T04:21:55.760Z,6.95
2023-05-08T04:24:22.891Z,6.98
2023-05-08T04:26:49.663Z,7.09
2023-05-08T04:29:16.885Z,7.22
2023-05-08T04:31:43.625Z,7.19
2023-05-08T04:34:10.209Z,7.35
2023-05-08T04:36:36.612Z,7.38
2023-05-08T04:39:03.393Z,7.40
2023-05-08T04:41:29.868Z,7.45
2023-05-08T04:43:56.755Z,7.47
2023-05-08T04:46:24.514Z,7.49
2023-05-08T04:48:51.079Z,7.60
2023-05-08T04:51:17.389Z,7.74
2023-05-08T04:53:43.666Z,7.67
2023-05-08T04:56:10.004Z,7.75
2023-05-08T04:58:36.294Z,7.81
2023-05-08T05:01:03.472Z,7.87
2023-05-08T05:03:30.017Z,7.90
2023-05-08T05:05:59.973Z,7.98
2023-05-08T05:08:26.700Z,7.96
2023-05-08T05:10:53.040Z,8.00
2023-05-08T05:13:19.898Z,8.03
2023-05-08T05:15:46.342Z,8.13
2023-05-08T05:18:13.035Z,8.07
2023-05-08T05:20:39.411Z,8.17
2023-05-08T05:23:05.793Z,8.24
2023-05-08T05:25:32.212Z,8.34
2023-05-08T05:27:58.583Z,8.39
2023-05-08T05:30:24.963Z,8.42
2023-05-08T05:32:51.416Z,8.45
2023-05-08T05:35:17.762Z,8.61
2023-05-08T05:37:44.092Z,8.66
2023-05-08T05:40:13.055Z,8.76
2023-05-08T05:42:39.348Z,8.57
2023-05-08T05:45:05.972Z,8.69
2023-05-08T05:47:32.399Z,8.84
2023-05-08T05:49:58.813Z,8.85
2023-05-08T05:52:25.209Z,8.92
2023-05-08T05:54:51.670Z,9.11
2023-05-08T05:57:18.008Z,9.23
2023-05-08T05:59:44.516Z,9.29
2023-05-08T06:02:14.424Z,9.42
2023-05-08T06:04:40.795Z,9.46
2023-05-08T06:07:07.063Z,9.34
2023-05-08T06:09:33.659Z,9.41
2023-05-08T06:11:59.958Z,9.55
2023-05-08T06:14:26.735Z,9.48
2023-05-08T06:16:53.140Z,9.72
2023-05-08T06:19:19.462Z,9.79
2023-05-08T06:21:45.785Z,9.72
2023-05-08T06:24:12.111Z,9.82
2023-05-08T06:26:38.405Z,10.00
2023-05-08T06:29:04.766Z,10.04
2023-05-08T06:31:31.269Z,10.13
2023-05-08T06:33:57.699Z,10.35
2023-05-08T06:36:24.048Z,10.49
2023-05-08T06:38:50.487Z,10.69
2023-05-08T06:41:16.832Z,10.82
2023-05-08T06:43:43.123Z,11.10
2023-05-08T06:46:09.579Z,11.32
2023-05-08T06:48:35.992Z,11.57
2023-05-08T06:51:02.653Z,11.71
2023-05-08T06:53:29.011Z,11.92
2023-05-08T06:55:55.398Z,12.24
2023-05-08T06:58:21.754Z,12.33
2023-05-08T07:00:48.092Z,12.64
2023-05-08T07:03:14.491Z,12.79
2023-05-08T07:05:40.819Z,13.02
2023-05-08T07:08:07.198Z,13.09
2023-05-08T07:10:33.565Z,13.31
2023-05-08T07:12:59.924Z,13.31
2023-05-08T07:15:27.082Z,13.56
2023-05-08T07:17:53.803Z,13.64
2023-05-08T07:20:21.261Z,13.64
2023-05-08T07:22:47.588Z,13.48
2023-05-08T07:25:14.067Z,13.40
2023-05-08T07:27:40.546Z,13.64
2023-05-08T07:30:07.286Z,13.80
2023-05-08T07:32:33.772Z,13.68
2023-05-08T07:35:00.222Z,13.80
2023-05-08T07:37:26.834Z,13.85
2023-05-08T07:39:53.142Z,13.99
2023-05-08T07:42:19.514Z,14.01
2023-05-08T07:44:54.352Z,13.98
2023-05-08T07:47:21.538Z,13.69
2023-05-08T07:49:47.918Z,13.83
2023-05-08T07:52:14.262Z,13.63
2023-05-08T07:54:40.551Z,13.64
2023-05-08T07:57:06.896Z,13.91
2023-05-08T07:59:33.205Z,14.17
2023-05-08T08:01:59.563Z,13.90
2023-05-08T08:04:25.990Z,13.66
2023-05-08T08:06:52.338Z,14.04
2023-05-08T08:09:18.633Z,13.77
2023-05-08T08:11:44.964Z,13.79
2023-05-08T08:14:11.505Z,13.92
2023-05-08T08:16:37.861Z,13.89
2023-05-08T08:19:04.255Z,13.57
2023-05-08T08:21:31.102Z,13.40
2023-05-08T08:23:58.131Z,13.54
2023-05-08T08:26:25.131Z,13.69
2023-05-08T08:28:51.539Z,13.83
2023-05-08T08:31:19.692Z,13.74
2023-05-08T08:33:46.635Z,13.81
2023-05-08T08:36:13.905Z,14.01
2023-05-08T08:38:40.337Z,13.88
2023-05-08T08:41:07.047Z,13.68
2023-05-08T08:43:34.524Z,13.54
2023-05-08T08:46:10.212Z,14.08
2023-05-08T08:48:37.734Z,14.48
2023-05-08T08:51:07.108Z,14.63
2023-05-08T08:53:37.414Z,14.85
2023-05-08T08:56:06.854Z,15.10
2023-05-08T08:58:46.657Z,15.38
2023-05-08T09:01:17.879Z,15.35
2023-05-08T09:03:44.675Z,15.51
2023-05-08T09:06:12.624Z,15.58
2023-05-08T09:08:40.444Z,15.71
2023-05-08T09:11:06.799Z,15.77
2023-05-08T09:13:33.372Z,16.02
2023-05-08T09:16:00.245Z,16.03
2023-05-08T09:18:26.662Z,16.18
2023-05-08T09:20:53.089Z,16.05
2023-05-08T09:23:19.719Z,15.91
2023-05-08T09:25:50.536Z,15.97
2023-05-08T09:28:20.736Z,15.87
2023-05-08T09:30:53.962Z,15.79
2023-05-08T09:33:21.582Z,15.47
2023-05-08T09:35:50.961Z,15.81
2023-05-08T09:38:36.723Z,16.01
2023-05-08T09:41:15.228Z,15.79
2023-05-08T09:43:42.405Z,15.38
2023-05-08T09:46:22.366Z,15.54
2023-05-08T09:48:55.406Z,15.86
2023-05-08T09:51:22.852Z,15.59
2023-05-08T09:53:56.312Z,15.75
2023-05-08T09:56:48.868Z,15.73
2023-05-08T09:59:28.665Z,15.36
2023-05-08T10:01:55.879Z,15.31
2023-05-08T10:04:35.858Z,15.36
2023-05-08T10:07:02.680Z,15.18
2023-05-08T10:09:36.032Z,15.49
2023-05-08T10:12:13.712Z,15.59
2023-05-08T10:14:40.058Z,15.17
2023-05-08T10:17:07.868Z,15.25
2023-05-08T10:19:35.974Z,15.31
2023-05-08T10:22:03.995Z,15.31
2023-05-08T10:24:33.561Z,15.66
2023-05-08T10:27:07.339Z,15.62
2023-05-08T10:29:41.319Z,15.61
2023-05-08T10:32:09.760Z,15.61
2023-05-08T10:34:39.883Z,15.66
2023-05-08T10:37:09.039Z,15.42
2023-05-08T10:39:35.842Z,15.65
2023-05-08T10:42:02.639Z,15.03
2023-05-08T10:44:31.879Z,14.97
2023-05-08T10:47:04.803Z,15.18
2023-05-08T10:49:49.422Z,15.64
2023-05-08T10:52:21.153Z,15.73
2023-05-08T10:54:47.440Z,15.95
2023-05-08T10:57:14.999Z,16.18
2023-05-08T10:59:45.103Z,16.06
2023-05-08T11:02:11.598Z,16.30
2023-05-08T11:04:38.374Z,16.31
2023-05-08T11:07:05.064Z,16.51
2023-05-08T11:09:46.247Z,16.56
2023-05-08T11:12:12.528Z,16.55
2023-05-08T11:14:41.048Z,16.58
2023-05-08T11:17:08.273Z,16.65
2023-05-08T11:19:35.346Z,16.58
2023-05-08T11:22:10.693Z,16.74
2023-05-08T11:24:37.957Z,16.71
2023-05-08T11:27:04.440Z,16.75
2023-05-08T11:29:30.756Z,16.84
2023-05-08T11:31:57.094Z,16.51
2023-05-08T11:34:41.604Z,16.76
2023-05-08T11:37:26.240Z,16.34
2023-05-08T11:39:52.535Z,16.67
2023-05-08T11:42:24.604Z,16.31
2023-05-08T11:45:10.673Z,16.61
2023-05-08T11:47:41.855Z,16.45
2023-05-08T11:50:09.358Z,16.25
2023-05-08T11:52:36.493Z,16.60
2023-05-08T11:55:06.925Z,16.58
2023-05-08T11:57:33.414Z,16.73
2023-05-08T12:00:06.357Z,16.52
2023-05-08T12:02:39.678Z,16.43
2023-05-08T12:05:07.210Z,16.20
2023-05-08T12:07:33.883Z,16.39
2023-05-08T12:10:03.093Z,16.14
2023-05-08T12:12:39.131Z,15.96
2023-05-08T12:15:06.350Z,16.16
2023-05-08T12:17:32.783Z,16.18
2023-05-08T12:20:09.136Z,16.35
2023-05-08T12:22:35.538Z,16.17
2023-05-08T12:25:03.331Z,15.81
2023-05-08T12:27:29.663Z,16.33
2023-05-08T12:29:57.172Z,15.97
2023-05-08T12:32:23.720Z,16.11
2023-05-08T12:34:50.266Z,15.90
2023-05-08T12:37:28.987Z,15.95
2023-05-08T12:39:55.337Z,16.31
2023-05-08T12:42:21.655Z,16.00
2023-05-08T12:44:51.960Z,16.30
2023-05-08T12:47:18.772Z,16.28
2023-05-08T12:49:45.093Z,16.03
2023-05-08T12:52:14.529Z,15.76
2023-05-08T12:54:45.911Z,16.11
2023-05-08T12:57:16.581Z,16.46
2023-05-08T12:59:43.781Z,16.64
2023-05-08T13:02:17.277Z,16.74
2023-05-08T13:04:44.008Z,17.03
2023-05-08T13:07:10.630Z,17.03
2023-05-08T13:09:37.272Z,17.29
2023-05-08T13:12:03.680Z,17.33
2023-05-08T13:14:30.008Z,17.50
2023-05-08T13:16:56.505Z,17.47
2023-05-08T13:19:22.818Z,17.60
2023-05-08T13:21:49.439Z,17.51
2023-05-08T13:24:16.374Z,17.56
2023-05-08T13:26:42.713Z,17.65
2023-05-08T13:29:08.992Z,17.54
2023-05-08T13:31:35.952Z,17.58
2023-05-08T13:34:02.324Z,17.48
2023-05-08T13:36:28.663Z,17.45
2023-05-08T13:38:57.159Z,17.54
2023-05-08T13:41:23.457Z,17.40
2023-05-08T13:43:49.742Z,17.40
2023-05-08T13:46:16.142Z,17.39
2023-05-08T13:48:42.539Z,17.29
2023-05-08T13:51:08.831Z,17.45
2023-05-08T13:53:35.159Z,17.25
2023-05-08T13:56:01.487Z,17.23
2023-05-08T13:58:27.847Z,17.33
2023-05-08T14:00:54.239Z,17.19
2023-05-08T14:03:20.666Z,17.24
2023-05-08T14:05:46.966Z,17.22
2023-05-08T14:08:13.294Z,17.46
2023-05-08T14:10:40.665Z,17.32
2023-05-08T14:13:07.064Z,17.43
2023-05-08T14:15:37.288Z,17.27
2023-05-08T14:18:04.102Z,17.29
2023-05-08T14:20:30.538Z,16.77
2023-05-08T14:22:59.782Z,17.08
2023-05-08T14:25:26.596Z,16.66
2023-05-08T14:27:52.912Z,16.79
2023-05-08T14:30:19.305Z,16.80
2023-05-08T14:32:45.663Z,16.68
2023-05-08T14:35:14.101Z,17.09
2023-05-08T14:37:41.027Z,17.18
2023-05-08T14:40:07.659Z,17.05
2023-05-08T14:42:34.216Z,16.67
2023-05-08T14:45:00.666Z,16.74
2023-05-08T14:47:27.150Z,16.79
2023-05-08T14:49:53.906Z,16.98
2023-05-08T14:52:20.219Z,16.36
2023-05-08T14:54:52.888Z,16.51
2023-05-08T14:57:20.570Z,16.53
2023-05-08T14:59:55.080Z,16.99
2023-05-08T15:02:22.292Z,17.05
2023-05-08T15:04:48.681Z,17.24
2023-05-08T15:07:15.005Z,17.41
2023-05-08T15:09:41.500Z,17.46
2023-05-08T15:12:07.889Z,17.61
2023-05-08T15:14:34.184Z,17.59
2023-05-08T15:17:00.522Z,17.72
2023-05-08T15:19:26.883Z,17.70
2023-05-08T15:21:53.235Z,17.73
2023-05-08T15:24:19.586Z,17.79
2023-05-08T15:26:46.100Z,17.91
2023-05-08T15:29:12.493Z,17.95
2023-05-08T15:31:38.922Z,17.95
2023-05-08T15:34:05.437Z,17.91
2023-05-08T15:36:34.049Z,17.90
2023-05-08T15:39:00.541Z,17.78
2023-05-08T15:41:26.859Z,17.85
2023-05-08T15:43:53.181Z,17.71
2023-05-08T15:46:19.579Z,17.65
2023-05-08T15:48:45.882Z,17.72
2023-05-08T15:51:12.223Z,17.61
2023-05-08T15:53:38.583Z,17.83
2023-05-08T15:56:05.650Z,17.33
2023-05-08T15:58:32.014Z,17.55
2023-05-08T16:00:58.409Z,17.47
2023-05-08T16:03:24.904Z,17.53
2023-05-08T16:05:51.309Z,17.60
2023-05-08T16:08:17.769Z,17.67
2023-05-08T16:10:44.196Z,17.54
2023-05-08T16:13:10.661Z,17.46
2023-05-08T16:15:37.096Z,17.47
2023-05-08T16:18:03.647Z,17.37
2023-05-08T16:20:30.288Z,17.35
2023-05-08T16:22:57.199Z,17.20
2023-05-08T16:25:23.878Z,17.17
2023-05-08T16:27:50.358Z,17.38
2023-05-08T16:30:17.032Z,17.17
2023-05-08T16:32:45.599Z,17.27
2023-05-08T16:35:12.180Z,17.25
2023-05-08T16:37:38.700Z,16.98
2023-05-08T16:40:06.017Z,17.27
2023-05-08T16:42:32.328Z,17.12
2023-05-08T16:44:58.674Z,17.30
2023-05-08T16:47:25.122Z,17.14
2023-05-08T16:49:51.700Z,17.27
2023-05-08T16:52:18.153Z,17.16
2023-05-08T16:54:44.469Z,17.02
2023-05-08T16:57:11.016Z,17.08
2023-05-08T16:59:37.413Z,16.93
2023-05-08T17:02:03.863Z,16.47
2023-05-08T17:04:30.956Z,16.83
2023-05-08T17:06:57.422Z,16.98
2023-05-08T17:09:25.224Z,16.96
2023-05-08T17:11:51.639Z,16.99
2023-05-08T17:14:18.528Z,16.94
2023-05-08T17:16:44.933Z,16.88
2023-05-08T17:19:11.287Z,16.92
2023-05-08T17:21:37.812Z,16.93
2023-05-08T17:24:04.353Z,16.88
2023-05-08T17:26:33.994Z,16.92
2023-05-08T17:29:00.703Z,16.92
2023-05-08T17:31:27.669Z,16.87
2023-05-08T17:33:54.157Z,16.79
2023-05-08T17:36:20.549Z,16.86
2023-05-08T17:38:47.234Z,16.75
2023-05-08T17:41:14.224Z,16.67
2023-05-08T17:43:40.845Z,16.59
2023-05-08T17:46:07.467Z,16.60
2023-05-08T17:48:34.195Z,16.59
2023-05-08T17:51:02.536Z,16.47
2023-05-08T17:53:30.467Z,16.35
2023-05-08T17:55:57.016Z,16.30
2023-05-08T17:58:23.354Z,16.17
2023-05-08T18:00:49.709Z,16.01
2023-05-08T18:03:16.467Z,15.92
2023-05-08T18:05:43.511Z,15.83
2023-05-08T18:08:09.905Z,15.66
2023-05-08T18:10:36.493Z,15.48
2023-05-08T18:13:02.842Z,15.32
2023-05-08T18:15:29.341Z,15.07
2023-05-08T18:17:55.750Z,14.82
2023-05-08T18:20:22.102Z,14.62
2023-05-08T18:22:48.497Z,14.46
2023-05-08T18:25:14.969Z,14.28
2023-05-08T18:27:42.564Z,14.10
2023-05-08T18:30:09.351Z,14.03
2023-05-08T18:32:36.729Z,14.02
2023-05-08T18:35:03.235Z,13.89
2023-05-08T18:37:29.591Z,13.73
2023-05-08T18:39:56.020Z,13.64
2023-05-08T18:42:22.349Z,13.44
2023-05-08T18:44:48.663Z,13.30
2023-05-08T18:47:15.157Z,13.17
2023-05-08T18:49:41.622Z,13.04
2023-05-08T18:52:08.019Z,12.87
2023-05-08T18:54:34.349Z,12.75
2023-05-08T18:57:00.755Z,12.65
2023-05-08T18:59:27.111Z,12.50
2023-05-08T19:01:53.601Z,12.39
2023-05-08T19:04:19.968Z,12.22
2023-05-08T19:06:46.450Z,12.10
2023-05-08T19:09:12.939Z,12.18
2023-05-08T19:11:39.309Z,12.18
2023-05-08T19:14:05.677Z,12.16
2023-05-08T19:16:32.216Z,12.14
2023-05-08T19:18:58.587Z,12.20
2023-05-08T19:21:24.966Z,12.19
2023-05-08T19:23:51.522Z,12.20
2023-05-08T19:26:18.550Z,12.25
2023-05-08T19:28:44.908Z,12.34
2023-05-08T19:31:11.501Z,12.37
2023-05-08T19:33:37.846Z,12.38
2023-05-08T19:36:04.189Z,12.42
2023-05-08T19:38:30.615Z,12.38
2023-05-08T19:40:57.927Z,12.32
2023-05-08T19:43:25.309Z,12.31
2023-05-08T19:45:51.805Z,12.34
2023-05-08T19:48:19.990Z,12.42
2023-05-08T19:50:46.565Z,12.53
2023-05-08T19:53:13.036Z,12.58
2023-05-08T19:55:39.432Z,12.62
2023-05-08T19:58:05.971Z,12.57
2023-05-08T20:00:32.379Z,12.54
2023-05-08T20:02:58.897Z,12.44
2023-05-08T20:05:25.655Z,12.49
2023-05-08T20:07:52.070Z,12.52
2023-05-08T20:10:18.451Z,12.49
2023-05-08T20:12:44.866Z,12.47
2023-05-08T20:15:11.554Z,12.47
2023-05-08T20:17:38.236Z,12.44
2023-05-08T20:20:04.831Z,12.44
2023-05-08T20:22:31.223Z,12.49
2023-05-08T20:24:57.641Z,12.44
2023-05-08T20:27:23.966Z,12.41
2023-05-08T20:29:50.312Z,12.45
2023-05-08T20:32:18.980Z,12.29
2023-05-08T20:34:45.372Z,12.20
2023-05-08T20:37:11.828Z,12.20
2023-05-08T20:39:38.180Z,12.13
2023-05-08T20:42:04.488Z,12.11
2023-05-08T20:44:30.788Z,12.06
2023-05-08T20:46:57.112Z,12.05
2023-05-08T20:49:23.443Z,11.91
2023-05-08T20:51:49.802Z,11.90
2023-05-08T20:54:16.216Z,11.81
2023-05-08T20:56:42.537Z,11.83
2023-05-08T20:59:08.971Z,11.84
2023-05-08T21:01:35.299Z,11.74
2023-05-08T21:04:01.590Z,11.71
2023-05-08T21:06:27.949Z,11.69
2023-05-08T21:08:54.316Z,11.74
2023-05-08T21:11:21.146Z,11.82
2023-05-08T21:13:47.495Z,11.72
2023-05-08T21:16:13.809Z,11.63
2023-05-08T21:18:40.392Z,11.53
2023-05-08T21:21:17.003Z,11.54
2023-05-08T21:23:43.624Z,11.40
2023-05-08T21:26:09.992Z,11.33
2023-05-08T21:28:36.280Z,11.27
2023-05-08T21:31:02.647Z,11.21
2023-05-08T21:33:29.104Z,11.14
2023-05-08T21:35:55.675Z,11.12
2023-05-08T21:38:21.993Z,11.01
2023-05-08T21:40:48.320Z,10.84
2023-05-08T21:43:14.643Z,10.79
2023-05-08T21:45:40.949Z,10.70
2023-05-08T21:48:07.291Z,10.63
2023-05-08T21:50:33.900Z,10.57
2023-05-08T21:53:00.226Z,10.50
2023-05-08T21:55:26.546Z,10.40
2023-05-08T21:57:53.737Z,10.22
2023-05-08T22:00:20.287Z,10.11
2023-05-08T22:02:46.782Z,9.94
2023-05-08T22:05:13.358Z,9.81
2023-05-08T22:07:39.931Z,9.71
2023-05-08T22:10:08.989Z,9.63
2023-05-08T22:12:35.376Z,9.56
2023-05-08T22:15:01.683Z,9.40
2023-05-08T22:17:28.028Z,9.33
2023-05-08T22:19:54.429Z,9.28
2023-05-08T22:22:20.726Z,9.14
2023-05-08T22:24:46.997Z,9.04
2023-05-08T22:27:13.319Z,8.98
2023-05-08T22:29:39.667Z,9.06
2023-05-08T22:32:08.139Z,9.10
2023-05-08T22:34:34.626Z,9.15
2023-05-08T22:37:01.161Z,9.23
2023-05-08T22:39:27.485Z,9.33
2023-05-08T22:41:54.087Z,9.25
2023-05-08T22:44:20.435Z,9.26
2023-05-08T22:46:46.942Z,9.35
2023-05-08T22:49:13.506Z,9.40
2023-05-08T22:51:39.864Z,9.36
2023-05-08T22:54:06.330Z,9.36
2023-05-08T22:56:32.655Z,9.41
2023-05-08T22:58:59.073Z,9.44
2023-05-08T23:01:25.402Z,9.46
2023-05-08T23:03:53.587Z,9.56
2023-05-08T23:06:19.890Z,9.58
2023-05-08T23:08:46.323Z,9.59
2023-05-08T23:11:12.681Z,9.61
2023-05-08T23:13:39.022Z,9.61
2023-05-08T23:16:05.922Z,9.63
2023-05-08T23:18:34.045Z,9.62
2023-05-08T23:21:06.658Z,9.67
2023-05-08T23:23:33.171Z,9.67
2023-05-08T23:26:04.835Z,9.61
2023-05-08T23:28:32.826Z,9.66
2023-05-08T23:30:59.196Z,9.65
2023-05-08T23:33:25.539Z,9.59
2023-05-08T23:35:52.314Z,9.64
2023-05-08T23:38:18.644Z,9.63
2023-05-08T23:40:44.917Z,9.63
2023-05-08T23:43:11.263Z,9.55
2023-05-08T23:45:37.620Z,9.50
2023-05-08T23:48:04.100Z,9.47
2023-05-08T23:50:30.414Z,9.37
2023-05-08T23:52:56.771Z,9.29
2023-05-08T23:55:23.095Z,9.18
2023-05-08T23:57:49.384Z,9.17
